sensor_id;sensor_type;location;lat;lon;timestamp;temperature;humidity
69543;SHT31;56762;49.494;11.768;2022-08-06T00:02:09;16.46;87.04
69543;SHT31;56762;49.494;11.768;2022-08-06T00:04:37;16.41;86.06
69543;SHT31;56762;49.494;11.768;2022-08-06T00:07:08;16.39;85.31
69543;SHT31;56762;49.494;11.768;2022-08-06T00:09:48;16.34;85.83
69543;SHT31;56762;49.494;11.768;2022-08-06T00:12:27;16.33;84.89
69543;SHT31;56762;49.494;11.768;2022-08-06T00:14:58;16.24;85.23
69543;SHT31;56762;49.494;11.768;2022-08-06T00:17:26;16.24;85.29
69543;SHT31;56762;49.494;11.768;2022-08-06T00:19:58;16.16;86.08
69543;SHT31;56762;49.494;11.768;2022-08-06T00:22:29;16.12;87.07
69543;SHT31;56762;49.494;11.768;2022-08-06T00:24:58;16.12;87.01
69543;SHT31;56762;49.494;11.768;2022-08-06T00:27:26;16.13;85.68
69543;SHT31;56762;49.494;11.768;2022-08-06T00:30:08;16.16;85.61
69543;SHT31;56762;49.494;11.768;2022-08-06T00:32:47;16.20;85.63
69543;SHT31;56762;49.494;11.768;2022-08-06T00:35:19;16.10;86.40
69543;SHT31;56762;49.494;11.768;2022-08-06T00:37:54;16.08;88.06
69543;SHT31;56762;49.494;11.768;2022-08-06T00:40:26;16.10;87.85
69543;SHT31;56762;49.494;11.768;2022-08-06T00:42:59;16.10;86.35
69543;SHT31;56762;49.494;11.768;2022-08-06T00:45:33;16.10;87.16
69543;SHT31;56762;49.494;11.768;2022-08-06T00:48:07;16.10;86.85
69543;SHT31;56762;49.494;11.768;2022-08-06T00:50:55;16.14;85.67
69543;SHT31;56762;49.494;11.768;2022-08-06T00:53:26;16.13;87.05
69543;SHT31;56762;49.494;11.768;2022-08-06T00:55:59;16.14;87.12
69543;SHT31;56762;49.494;11.768;2022-08-06T00:58:36;16.10;86.23
69543;SHT31;56762;49.494;11.768;2022-08-06T01:01:08;16.13;85.41
69543;SHT31;56762;49.494;11.768;2022-08-06T01:03:43;16.13;86.23
69543;SHT31;56762;49.494;11.768;2022-08-06T01:06:18;16.13;84.87
69543;SHT31;56762;49.494;11.768;2022-08-06T01:09:06;16.16;85.58
69543;SHT31;56762;49.494;11.768;2022-08-06T01:11:36;16.19;83.73
69543;SHT31;56762;49.494;11.768;2022-08-06T01:14:04;16.27;85.70
69543;SHT31;56762;49.494;11.768;2022-08-06T01:16:40;16.33;84.58
69543;SHT31;56762;49.494;11.768;2022-08-06T01:19:30;16.21;85.23
69543;SHT31;56762;49.494;11.768;2022-08-06T01:22:36;16.19;85.41
69543;SHT31;56762;49.494;11.768;2022-08-06T01:25:20;16.19;83.61
69543;SHT31;56762;49.494;11.768;2022-08-06T01:28:15;16.10;84.53
69543;SHT31;56762;49.494;11.768;2022-08-06T01:31:01;16.08;87.26
69543;SHT31;56762;49.494;11.768;2022-08-06T01:33:36;16.08;84.51
69543;SHT31;56762;49.494;11.768;2022-08-06T01:36:11;15.99;84.57
69543;SHT31;56762;49.494;11.768;2022-08-06T01:38:46;16.03;86.00
69543;SHT31;56762;49.494;11.768;2022-08-06T01:41:28;15.99;86.71
69543;SHT31;56762;49.494;11.768;2022-08-06T01:44:29;15.96;86.46
69543;SHT31;56762;49.494;11.768;2022-08-06T01:47:02;15.98;87.74
69543;SHT31;56762;49.494;11.768;2022-08-06T01:49:46;16.02;86.12
69543;SHT31;56762;49.494;11.768;2022-08-06T01:52:31;16.06;87.03
69543;SHT31;56762;49.494;11.768;2022-08-06T01:55:05;16.10;84.35
69543;SHT31;56762;49.494;11.768;2022-08-06T01:57:38;16.02;84.84
69543;SHT31;56762;49.494;11.768;2022-08-06T02:00:29;16.02;86.35
69543;SHT31;56762;49.494;11.768;2022-08-06T02:02:59;16.00;85.69
69543;SHT31;56762;49.494;11.768;2022-08-06T02:05:30;15.93;85.71
69543;SHT31;56762;49.494;11.768;2022-08-06T02:08:12;15.92;86.91
69543;SHT31;56762;49.494;11.768;2022-08-06T02:11:03;15.93;87.39
69543;SHT31;56762;49.494;11.768;2022-08-06T02:13:52;15.92;86.55
69543;SHT31;56762;49.494;11.768;2022-08-06T02:16:28;15.98;85.40
69543;SHT31;56762;49.494;11.768;2022-08-06T02:18:58;16.05;83.79
69543;SHT31;56762;49.494;11.768;2022-08-06T02:21:36;16.05;84.97
69543;SHT31;56762;49.494;11.768;2022-08-06T02:24:07;15.95;85.67
69543;SHT31;56762;49.494;11.768;2022-08-06T02:26:38;15.96;83.76
69543;SHT31;56762;49.494;11.768;2022-08-06T02:29:08;15.95;83.98
69543;SHT31;56762;49.494;11.768;2022-08-06T02:31:41;15.86;85.74
69543;SHT31;56762;49.494;11.768;2022-08-06T02:34:18;15.86;86.57
69543;SHT31;56762;49.494;11.768;2022-08-06T02:36:58;15.86;84.97
69543;SHT31;56762;49.494;11.768;2022-08-06T02:39:33;15.85;85.34
69543;SHT31;56762;49.494;11.768;2022-08-06T02:42:20;15.92;83.97
69543;SHT31;56762;49.494;11.768;2022-08-06T02:44:59;15.89;84.81
69543;SHT31;56762;49.494;11.768;2022-08-06T02:47:35;15.85;84.76
69543;SHT31;56762;49.494;11.768;2022-08-06T02:50:28;15.81;86.58
69543;SHT31;56762;49.494;11.768;2022-08-06T02:53:06;15.85;84.53
69543;SHT31;56762;49.494;11.768;2022-08-06T02:55:53;15.79;84.94
69543;SHT31;56762;49.494;11.768;2022-08-06T02:58:28;15.78;83.75
69543;SHT31;56762;49.494;11.768;2022-08-06T03:01:09;15.75;83.76
69543;SHT31;56762;49.494;11.768;2022-08-06T03:03:49;15.72;85.50
69543;SHT31;56762;49.494;11.768;2022-08-06T03:06:26;15.75;84.40
69543;SHT31;56762;49.494;11.768;2022-08-06T03:08:58;15.78;85.97
69543;SHT31;56762;49.494;11.768;2022-08-06T03:11:29;15.77;85.71
69543;SHT31;56762;49.494;11.768;2022-08-06T03:14:01;15.78;84.18
69543;SHT31;56762;49.494;11.768;2022-08-06T03:16:51;15.78;85.86
69543;SHT31;56762;49.494;11.768;2022-08-06T03:19:26;15.78;85.13
69543;SHT31;56762;49.494;11.768;2022-08-06T03:22:16;15.79;85.83
69543;SHT31;56762;49.494;11.768;2022-08-06T03:25:05;15.77;84.86
69543;SHT31;56762;49.494;11.768;2022-08-06T03:27:35;15.73;84.57
69543;SHT31;56762;49.494;11.768;2022-08-06T03:30:11;15.73;85.07
69543;SHT31;56762;49.494;11.768;2022-08-06T03:33:00;15.72;84.14
69543;SHT31;56762;49.494;11.768;2022-08-06T03:35:51;15.81;85.19
69543;SHT31;56762;49.494;11.768;2022-08-06T03:38:21;15.77;85.48
69543;SHT31;56762;49.494;11.768;2022-08-06T03:40:55;15.85;84.80
69543;SHT31;56762;49.494;11.768;2022-08-06T03:43:24;15.81;85.37
69543;SHT31;56762;49.494;11.768;2022-08-06T03:46:13;15.93;83.33
69543;SHT31;56762;49.494;11.768;2022-08-06T03:48:44;15.83;84.26
69543;SHT31;56762;49.494;11.768;2022-08-06T03:51:17;15.75;84.87
69543;SHT31;56762;49.494;11.768;2022-08-06T03:54:08;15.75;85.87
69543;SHT31;56762;49.494;11.768;2022-08-06T03:56:41;15.78;83.81
69543;SHT31;56762;49.494;11.768;2022-08-06T03:59:16;15.85;84.38
69543;SHT31;56762;49.494;11.768;2022-08-06T04:01:47;15.72;84.36
69543;SHT31;56762;49.494;11.768;2022-08-06T04:04:17;15.85;84.28
69543;SHT31;56762;49.494;11.768;2022-08-06T04:06:55;15.75;84.96
69543;SHT31;56762;49.494;11.768;2022-08-06T04:09:29;15.77;85.51
69543;SHT31;56762;49.494;11.768;2022-08-06T04:12:19;15.73;86.16
69543;SHT31;56762;49.494;11.768;2022-08-06T04:15:09;15.79;83.87
69543;SHT31;56762;49.494;11.768;2022-08-06T04:17:42;15.79;84.71
69543;SHT31;56762;49.494;11.768;2022-08-06T04:20:17;15.85;83.30
69543;SHT31;56762;49.494;11.768;2022-08-06T04:23:07;15.92;84.00
69543;SHT31;56762;49.494;11.768;2022-08-06T04:25:39;15.90;83.97
69543;SHT31;56762;49.494;11.768;2022-08-06T04:28:10;15.86;83.77
69543;SHT31;56762;49.494;11.768;2022-08-06T04:30:39;15.78;84.75
69543;SHT31;56762;49.494;11.768;2022-08-06T04:33:19;15.88;84.02
69543;SHT31;56762;49.494;11.768;2022-08-06T04:36:02;15.79;84.95
69543;SHT31;56762;49.494;11.768;2022-08-06T04:38:52;15.85;83.51
69543;SHT31;56762;49.494;11.768;2022-08-06T04:41:22;15.89;82.63
69543;SHT31;56762;49.494;11.768;2022-08-06T04:43:51;15.77;84.66
69543;SHT31;56762;49.494;11.768;2022-08-06T04:46:21;15.70;85.13
69543;SHT31;56762;49.494;11.768;2022-08-06T04:48:52;15.81;84.03
69543;SHT31;56762;49.494;11.768;2022-08-06T04:51:27;15.81;83.82
69543;SHT31;56762;49.494;11.768;2022-08-06T04:54:16;15.81;84.35
69543;SHT31;56762;49.494;11.768;2022-08-06T04:56:53;15.78;84.53
69543;SHT31;56762;49.494;11.768;2022-08-06T04:59:20;15.82;83.88
69543;SHT31;56762;49.494;11.768;2022-08-06T05:01:48;15.85;84.41
69543;SHT31;56762;49.494;11.768;2022-08-06T05:04:27;15.92;83.95
69543;SHT31;56762;49.494;11.768;2022-08-06T05:07:05;15.88;84.53
69543;SHT31;56762;49.494;11.768;2022-08-06T05:09:40;15.85;83.23
69543;SHT31;56762;49.494;11.768;2022-08-06T05:12:20;15.86;81.97
69543;SHT31;56762;49.494;11.768;2022-08-06T05:14:54;15.85;82.11
69543;SHT31;56762;49.494;11.768;2022-08-06T05:17:26;15.88;81.74
69543;SHT31;56762;49.494;11.768;2022-08-06T05:20:05;15.83;82.83
69543;SHT31;56762;49.494;11.768;2022-08-06T05:22:53;15.88;81.54
69543;SHT31;56762;49.494;11.768;2022-08-06T05:25:30;15.88;80.14
69543;SHT31;56762;49.494;11.768;2022-08-06T05:28:02;15.83;80.44
69543;SHT31;56762;49.494;11.768;2022-08-06T05:30:44;15.81;80.10
69543;SHT31;56762;49.494;11.768;2022-08-06T05:33:21;15.70;80.43
69543;SHT31;56762;49.494;11.768;2022-08-06T05:35:54;15.69;81.26
69543;SHT31;56762;49.494;11.768;2022-08-06T05:38:32;15.75;79.66
69543;SHT31;56762;49.494;11.768;2022-08-06T05:41:06;15.79;79.02
69543;SHT31;56762;49.494;11.768;2022-08-06T05:43:36;15.73;79.99
69543;SHT31;56762;49.494;11.768;2022-08-06T05:46:27;15.72;79.56
69543;SHT31;56762;49.494;11.768;2022-08-06T05:49:04;15.72;79.53
69543;SHT31;56762;49.494;11.768;2022-08-06T05:51:57;15.78;77.38
69543;SHT31;56762;49.494;11.768;2022-08-06T05:54:35;15.69;78.81
69543;SHT31;56762;49.494;11.768;2022-08-06T05:57:12;15.66;78.82
69543;SHT31;56762;49.494;11.768;2022-08-06T05:59:48;15.65;77.34
69543;SHT31;56762;49.494;11.768;2022-08-06T06:02:25;15.63;78.30
69543;SHT31;56762;49.494;11.768;2022-08-06T06:04:57;15.63;78.77
69543;SHT31;56762;49.494;11.768;2022-08-06T06:07:48;15.75;78.34
69543;SHT31;56762;49.494;11.768;2022-08-06T06:10:38;15.92;75.77
69543;SHT31;56762;49.494;11.768;2022-08-06T06:13:21;15.96;74.72
69543;SHT31;56762;49.494;11.768;2022-08-06T06:16:19;15.99;74.67
69543;SHT31;56762;49.494;11.768;2022-08-06T06:19:04;16.00;76.13
69543;SHT31;56762;49.494;11.768;2022-08-06T06:21:47;16.16;75.19
69543;SHT31;56762;49.494;11.768;2022-08-06T06:24:25;16.24;74.21
69543;SHT31;56762;49.494;11.768;2022-08-06T06:26:57;16.27;73.87
69543;SHT31;56762;49.494;11.768;2022-08-06T06:29:37;16.30;73.52
69543;SHT31;56762;49.494;11.768;2022-08-06T06:32:38;16.29;72.52
69543;SHT31;56762;49.494;11.768;2022-08-06T06:35:31;16.26;75.21
69543;SHT31;56762;49.494;11.768;2022-08-06T06:38:12;16.26;74.52
69543;SHT31;56762;49.494;11.768;2022-08-06T06:40:48;16.36;73.12
69543;SHT31;56762;49.494;11.768;2022-08-06T06:43:33;16.48;72.27
69543;SHT31;56762;49.494;11.768;2022-08-06T06:46:23;16.39;73.17
69543;SHT31;56762;49.494;11.768;2022-08-06T06:49:12;16.39;73.50
69543;SHT31;56762;49.494;11.768;2022-08-06T06:52:07;16.43;72.48
69543;SHT31;56762;49.494;11.768;2022-08-06T06:54:39;16.44;72.55
69543;SHT31;56762;49.494;11.768;2022-08-06T06:57:18;16.56;72.14
69543;SHT31;56762;49.494;11.768;2022-08-06T06:59:51;16.58;74.06
69543;SHT31;56762;49.494;11.768;2022-08-06T07:02:45;16.70;71.73
69543;SHT31;56762;49.494;11.768;2022-08-06T07:05:15;16.81;69.58
69543;SHT31;56762;49.494;11.768;2022-08-06T07:08:05;16.84;71.95
69543;SHT31;56762;49.494;11.768;2022-08-06T07:10:38;16.95;68.98
69543;SHT31;56762;49.494;11.768;2022-08-06T07:13:09;16.91;69.28
69543;SHT31;56762;49.494;11.768;2022-08-06T07:15:41;16.85;68.97
69543;SHT31;56762;49.494;11.768;2022-08-06T07:18:21;16.84;69.17
69543;SHT31;56762;49.494;11.768;2022-08-06T07:20:58;16.68;69.82
69543;SHT31;56762;49.494;11.768;2022-08-06T07:23:28;16.63;68.83
69543;SHT31;56762;49.494;11.768;2022-08-06T07:26:17;16.68;69.41
69543;SHT31;56762;49.494;11.768;2022-08-06T07:28:47;16.78;68.19
69543;SHT31;56762;49.494;11.768;2022-08-06T07:31:17;16.77;68.74
69543;SHT31;56762;49.494;11.768;2022-08-06T07:33:50;16.89;66.28
69543;SHT31;56762;49.494;11.768;2022-08-06T07:36:31;16.91;67.75
69543;SHT31;56762;49.494;11.768;2022-08-06T07:39:07;16.81;67.79
69543;SHT31;56762;49.494;11.768;2022-08-06T07:41:42;16.96;66.71
69543;SHT31;56762;49.494;11.768;2022-08-06T07:44:32;17.02;65.94
69543;SHT31;56762;49.494;11.768;2022-08-06T07:47:25;17.14;64.28
69543;SHT31;56762;49.494;11.768;2022-08-06T07:50:15;17.11;65.27
69543;SHT31;56762;49.494;11.768;2022-08-06T07:52:50;17.05;65.20
69543;SHT31;56762;49.494;11.768;2022-08-06T07:55:20;16.92;66.35
69543;SHT31;56762;49.494;11.768;2022-08-06T07:58:06;17.11;64.42
69543;SHT31;56762;49.494;11.768;2022-08-06T08:00:35;17.23;65.04
69543;SHT31;56762;49.494;11.768;2022-08-06T08:03:05;17.22;64.58
69543;SHT31;56762;49.494;11.768;2022-08-06T08:06:12;17.35;64.86
69543;SHT31;56762;49.494;11.768;2022-08-06T08:08:52;17.32;64.65
69543;SHT31;56762;49.494;11.768;2022-08-06T08:11:23;17.19;64.02
69543;SHT31;56762;49.494;11.768;2022-08-06T08:14:13;17.42;63.08
69543;SHT31;56762;49.494;11.768;2022-08-06T08:16:45;17.51;64.54
69543;SHT31;56762;49.494;11.768;2022-08-06T08:19:22;17.57;63.53
69543;SHT31;56762;49.494;11.768;2022-08-06T08:21:52;17.65;62.75
69543;SHT31;56762;49.494;11.768;2022-08-06T08:24:21;17.74;62.92
69543;SHT31;56762;49.494;11.768;2022-08-06T08:26:50;17.70;62.53
69543;SHT31;56762;49.494;11.768;2022-08-06T08:29:39;17.74;61.49
69543;SHT31;56762;49.494;11.768;2022-08-06T08:32:22;17.84;63.90
69543;SHT31;56762;49.494;11.768;2022-08-06T08:34:51;17.96;62.75
69543;SHT31;56762;49.494;11.768;2022-08-06T08:37:21;17.91;63.19
69543;SHT31;56762;49.494;11.768;2022-08-06T08:39:49;17.97;62.15
69543;SHT31;56762;49.494;11.768;2022-08-06T08:42:28;18.15;57.43
69543;SHT31;56762;49.494;11.768;2022-08-06T08:44:59;18.18;58.92
69543;SHT31;56762;49.494;11.768;2022-08-06T08:47:29;18.18;57.42
69543;SHT31;56762;49.494;11.768;2022-08-06T08:50:19;18.24;57.67
69543;SHT31;56762;49.494;11.768;2022-08-06T08:52:51;18.20;58.77
69543;SHT31;56762;49.494;11.768;2022-08-06T08:55:24;18.21;56.14
69543;SHT31;56762;49.494;11.768;2022-08-06T08:58:12;18.17;56.43
69543;SHT31;56762;49.494;11.768;2022-08-06T09:01:00;18.22;55.48
69543;SHT31;56762;49.494;11.768;2022-08-06T09:03:28;18.29;56.40
69543;SHT31;56762;49.494;11.768;2022-08-06T09:05:57;18.31;56.93
69543;SHT31;56762;49.494;11.768;2022-08-06T09:08:28;18.27;57.02
69543;SHT31;56762;49.494;11.768;2022-08-06T09:11:17;18.27;56.79
69543;SHT31;56762;49.494;11.768;2022-08-06T09:14:06;18.42;55.82
69543;SHT31;56762;49.494;11.768;2022-08-06T09:16:36;18.32;55.34
69543;SHT31;56762;49.494;11.768;2022-08-06T09:19:15;18.49;54.23
69543;SHT31;56762;49.494;11.768;2022-08-06T09:21:45;18.47;55.69
69543;SHT31;56762;49.494;11.768;2022-08-06T09:24:18;18.47;54.75
69543;SHT31;56762;49.494;11.768;2022-08-06T09:27:04;18.58;54.02
69543;SHT31;56762;49.494;11.768;2022-08-06T09:29:55;18.58;54.77
69543;SHT31;56762;49.494;11.768;2022-08-06T09:32:38;18.44;56.35
69543;SHT31;56762;49.494;11.768;2022-08-06T09:35:24;18.42;55.50
69543;SHT31;56762;49.494;11.768;2022-08-06T09:38:12;18.48;56.61
69543;SHT31;56762;49.494;11.768;2022-08-06T09:41:01;18.52;56.64
69543;SHT31;56762;49.494;11.768;2022-08-06T09:43:32;18.59;53.51
69543;SHT31;56762;49.494;11.768;2022-08-06T09:46:39;18.66;55.60
69543;SHT31;56762;49.494;11.768;2022-08-06T09:49:15;18.80;52.80
69543;SHT31;56762;49.494;11.768;2022-08-06T09:52:10;18.79;53.91
69543;SHT31;56762;49.494;11.768;2022-08-06T09:54:39;18.93;51.63
69543;SHT31;56762;49.494;11.768;2022-08-06T09:57:09;18.88;51.97
69543;SHT31;56762;49.494;11.768;2022-08-06T09:59:44;18.92;52.54
69543;SHT31;56762;49.494;11.768;2022-08-06T10:02:17;18.83;53.38
69543;SHT31;56762;49.494;11.768;2022-08-06T10:05:06;18.90;51.38
69543;SHT31;56762;49.494;11.768;2022-08-06T10:07:45;19.14;50.53
69543;SHT31;56762;49.494;11.768;2022-08-06T10:10:19;19.20;49.54
69543;SHT31;56762;49.494;11.768;2022-08-06T10:13:13;19.23;49.83
69543;SHT31;56762;49.494;11.768;2022-08-06T10:15:46;19.26;49.90
69543;SHT31;56762;49.494;11.768;2022-08-06T10:18:36;19.11;49.66
69543;SHT31;56762;49.494;11.768;2022-08-06T10:21:25;19.07;50.95
69543;SHT31;56762;49.494;11.768;2022-08-06T10:24:08;19.21;50.59
69543;SHT31;56762;49.494;11.768;2022-08-06T10:26:36;19.24;50.05
69543;SHT31;56762;49.494;11.768;2022-08-06T10:29:11;19.30;49.57
69543;SHT31;56762;49.494;11.768;2022-08-06T10:31:43;19.30;51.03
69543;SHT31;56762;49.494;11.768;2022-08-06T10:34:23;19.27;50.49
69543;SHT31;56762;49.494;11.768;2022-08-06T10:37:00;19.43;50.29
69543;SHT31;56762;49.494;11.768;2022-08-06T10:39:51;19.46;49.34
69543;SHT31;56762;49.494;11.768;2022-08-06T10:42:36;19.41;48.00
69543;SHT31;56762;49.494;11.768;2022-08-06T10:45:10;19.41;49.44
69543;SHT31;56762;49.494;11.768;2022-08-06T10:47:43;19.44;47.54
69543;SHT31;56762;49.494;11.768;2022-08-06T10:50:31;19.51;46.63
69543;SHT31;56762;49.494;11.768;2022-08-06T10:53:10;19.50;47.23
69543;SHT31;56762;49.494;11.768;2022-08-06T10:56:00;19.51;51.37
69543;SHT31;56762;49.494;11.768;2022-08-06T10:58:31;19.53;50.07
69543;SHT31;56762;49.494;11.768;2022-08-06T11:01:05;19.60;48.97
69543;SHT31;56762;49.494;11.768;2022-08-06T11:03:45;19.77;44.99
69543;SHT31;56762;49.494;11.768;2022-08-06T11:09:34;19.68;45.17
69543;SHT31;56762;49.494;11.768;2022-08-06T11:12:41;19.72;46.87
69543;SHT31;56762;49.494;11.768;2022-08-06T11:15:16;19.75;47.04
69543;SHT31;56762;49.494;11.768;2022-08-06T11:17:51;19.82;45.82
69543;SHT31;56762;49.494;11.768;2022-08-06T11:20:34;20.00;45.77
69543;SHT31;56762;49.494;11.768;2022-08-06T11:23:04;20.05;43.70
69543;SHT31;56762;49.494;11.768;2022-08-06T11:25:38;19.91;45.22
69543;SHT31;56762;49.494;11.768;2022-08-06T11:28:07;19.98;45.06
69543;SHT31;56762;49.494;11.768;2022-08-06T11:30:38;19.88;48.26
69543;SHT31;56762;49.494;11.768;2022-08-06T11:33:14;19.92;46.19
69543;SHT31;56762;49.494;11.768;2022-08-06T11:35:45;19.96;45.34
69543;SHT31;56762;49.494;11.768;2022-08-06T11:38:56;20.09;45.02
69543;SHT31;56762;49.494;11.768;2022-08-06T11:41:47;20.04;44.40
69543;SHT31;56762;49.494;11.768;2022-08-06T11:44:24;19.92;46.09
69543;SHT31;56762;49.494;11.768;2022-08-06T11:47:15;20.06;45.24
69543;SHT31;56762;49.494;11.768;2022-08-06T11:49:59;20.02;44.21
69543;SHT31;56762;49.494;11.768;2022-08-06T11:52:41;19.99;45.06
69543;SHT31;56762;49.494;11.768;2022-08-06T11:55:12;20.20;44.16
69543;SHT31;56762;49.494;11.768;2022-08-06T11:57:50;20.15;45.91
69543;SHT31;56762;49.494;11.768;2022-08-06T12:00:55;20.06;46.46
69543;SHT31;56762;49.494;11.768;2022-08-06T12:03:36;20.05;44.22
69543;SHT31;56762;49.494;11.768;2022-08-06T12:06:20;20.29;45.01
69543;SHT31;56762;49.494;11.768;2022-08-06T12:09:06;20.28;44.66
69543;SHT31;56762;49.494;11.768;2022-08-06T12:11:37;20.25;46.62
69543;SHT31;56762;49.494;11.768;2022-08-06T12:14:38;20.36;45.79
69543;SHT31;56762;49.494;11.768;2022-08-06T12:17:16;20.33;45.85
69543;SHT31;56762;49.494;11.768;2022-08-06T12:19:46;20.30;46.12
69543;SHT31;56762;49.494;11.768;2022-08-06T12:22:31;20.43;46.19
69543;SHT31;56762;49.494;11.768;2022-08-06T12:25:04;20.47;43.86
69543;SHT31;56762;49.494;11.768;2022-08-06T12:27:39;20.56;44.09
69543;SHT31;56762;49.494;11.768;2022-08-06T12:30:19;20.60;43.14
69543;SHT31;56762;49.494;11.768;2022-08-06T12:33:04;20.61;42.61
69543;SHT31;56762;49.494;11.768;2022-08-06T12:35:47;20.61;44.98
69543;SHT31;56762;49.494;11.768;2022-08-06T12:38:18;20.64;43.74
69543;SHT31;56762;49.494;11.768;2022-08-06T12:40:54;20.64;44.03
69543;SHT31;56762;49.494;11.768;2022-08-06T12:43:23;20.69;43.59
69543;SHT31;56762;49.494;11.768;2022-08-06T12:46:12;20.87;42.30
69543;SHT31;56762;49.494;11.768;2022-08-06T12:48:47;20.84;41.95
69543;SHT31;56762;49.494;11.768;2022-08-06T12:51:17;20.91;42.13
69543;SHT31;56762;49.494;11.768;2022-08-06T12:53:56;20.87;42.88
69543;SHT31;56762;49.494;11.768;2022-08-06T12:56:28;20.81;41.56
69543;SHT31;56762;49.494;11.768;2022-08-06T12:59:04;20.84;40.98
69543;SHT31;56762;49.494;11.768;2022-08-06T13:01:49;20.83;39.03
69543;SHT31;56762;49.494;11.768;2022-08-06T13:04:37;20.95;40.03
69543;SHT31;56762;49.494;11.768;2022-08-06T13:07:07;20.95;40.78
69543;SHT31;56762;49.494;11.768;2022-08-06T13:09:42;20.87;41.79
69543;SHT31;56762;49.494;11.768;2022-08-06T13:12:30;20.85;38.79
69543;SHT31;56762;49.494;11.768;2022-08-06T13:15:18;20.87;40.02
69543;SHT31;56762;49.494;11.768;2022-08-06T13:18:06;20.98;40.02
69543;SHT31;56762;49.494;11.768;2022-08-06T13:20:55;21.00;39.99
69543;SHT31;56762;49.494;11.768;2022-08-06T13:23:29;20.92;40.54
69543;SHT31;56762;49.494;11.768;2022-08-06T13:26:12;20.84;40.49
69543;SHT31;56762;49.494;11.768;2022-08-06T13:29:12;20.91;39.30
69543;SHT31;56762;49.494;11.768;2022-08-06T13:32:06;20.97;41.36
69543;SHT31;56762;49.494;11.768;2022-08-06T13:34:55;21.04;40.56
69543;SHT31;56762;49.494;11.768;2022-08-06T13:37:41;21.10;38.36
69543;SHT31;56762;49.494;11.768;2022-08-06T13:40:39;21.12;38.92
69543;SHT31;56762;49.494;11.768;2022-08-06T13:43:18;21.02;38.34
69543;SHT31;56762;49.494;11.768;2022-08-06T13:46:07;21.00;38.85
69543;SHT31;56762;49.494;11.768;2022-08-06T13:48:44;20.97;39.88
69543;SHT31;56762;49.494;11.768;2022-08-06T13:51:15;21.07;38.27
69543;SHT31;56762;49.494;11.768;2022-08-06T13:53:54;21.14;38.26
69543;SHT31;56762;49.494;11.768;2022-08-06T13:56:24;21.12;39.13
69543;SHT31;56762;49.494;11.768;2022-08-06T13:58:57;21.07;40.53
69543;SHT31;56762;49.494;11.768;2022-08-06T14:01:27;21.00;39.91
69543;SHT31;56762;49.494;11.768;2022-08-06T14:04:12;21.00;40.27
69543;SHT31;56762;49.494;11.768;2022-08-06T14:06:40;20.95;41.59
69543;SHT31;56762;49.494;11.768;2022-08-06T14:09:12;21.04;39.16
69543;SHT31;56762;49.494;11.768;2022-08-06T14:11:49;21.07;39.31
69543;SHT31;56762;49.494;11.768;2022-08-06T14:14:23;21.11;39.65
69543;SHT31;56762;49.494;11.768;2022-08-06T14:16:54;21.02;38.56
69543;SHT31;56762;49.494;11.768;2022-08-06T14:19:23;20.97;38.86
69543;SHT31;56762;49.494;11.768;2022-08-06T14:22:13;20.95;38.42
69543;SHT31;56762;49.494;11.768;2022-08-06T14:24:42;20.97;37.47
69543;SHT31;56762;49.494;11.768;2022-08-06T14:27:20;21.24;37.07
69543;SHT31;56762;49.494;11.768;2022-08-06T14:29:53;21.21;37.86
69543;SHT31;56762;49.494;11.768;2022-08-06T14:32:42;21.35;36.54
69543;SHT31;56762;49.494;11.768;2022-08-06T14:35:14;21.35;36.35
69543;SHT31;56762;49.494;11.768;2022-08-06T14:37:43;21.22;38.46
69543;SHT31;56762;49.494;11.768;2022-08-06T14:40:22;21.22;37.67
69543;SHT31;56762;49.494;11.768;2022-08-06T14:43:24;21.21;38.98
69543;SHT31;56762;49.494;11.768;2022-08-06T14:46:24;21.27;38.65
69543;SHT31;56762;49.494;11.768;2022-08-06T14:48:53;21.38;38.54
69543;SHT31;56762;49.494;11.768;2022-08-06T14:51:23;21.38;40.89
69543;SHT31;56762;49.494;11.768;2022-08-06T14:54:12;21.29;41.80
69543;SHT31;56762;49.494;11.768;2022-08-06T14:56:40;21.28;43.33
69543;SHT31;56762;49.494;11.768;2022-08-06T14:59:17;21.21;43.92
69543;SHT31;56762;49.494;11.768;2022-08-06T15:01:46;21.21;42.46
69543;SHT31;56762;49.494;11.768;2022-08-06T15:04:15;21.28;41.27
69543;SHT31;56762;49.494;11.768;2022-08-06T15:06:51;21.27;41.54
69543;SHT31;56762;49.494;11.768;2022-08-06T15:09:25;21.31;40.66
69543;SHT31;56762;49.494;11.768;2022-08-06T15:12:13;21.27;40.16
69543;SHT31;56762;49.494;11.768;2022-08-06T15:15:02;21.25;39.75
69543;SHT31;56762;49.494;11.768;2022-08-06T15:17:36;21.27;40.48
69543;SHT31;56762;49.494;11.768;2022-08-06T15:20:25;21.27;39.63
69543;SHT31;56762;49.494;11.768;2022-08-06T15:22:54;21.45;39.08
69543;SHT31;56762;49.494;11.768;2022-08-06T15:25:25;21.53;40.02
69543;SHT31;56762;49.494;11.768;2022-08-06T15:28:13;21.55;39.42
69543;SHT31;56762;49.494;11.768;2022-08-06T15:30:42;21.43;41.90
69543;SHT31;56762;49.494;11.768;2022-08-06T15:33:14;21.32;40.65
69543;SHT31;56762;49.494;11.768;2022-08-06T15:35:42;21.25;42.70
69543;SHT31;56762;49.494;11.768;2022-08-06T15:38:24;21.21;40.85
69543;SHT31;56762;49.494;11.768;2022-08-06T15:40:57;21.15;41.54
69543;SHT31;56762;49.494;11.768;2022-08-06T15:43:26;21.11;41.40
69543;SHT31;56762;49.494;11.768;2022-08-06T15:46:10;21.17;41.44
69543;SHT31;56762;49.494;11.768;2022-08-06T15:48:41;21.18;40.42
69543;SHT31;56762;49.494;11.768;2022-08-06T15:51:13;21.18;43.00
69543;SHT31;56762;49.494;11.768;2022-08-06T15:53:56;21.14;40.51
69543;SHT31;56762;49.494;11.768;2022-08-06T15:56:28;21.11;41.16
69543;SHT31;56762;49.494;11.768;2022-08-06T15:59:17;21.38;37.78
69543;SHT31;56762;49.494;11.768;2022-08-06T16:01:47;21.28;38.41
69543;SHT31;56762;49.494;11.768;2022-08-06T16:04:31;21.18;39.50
69543;SHT31;56762;49.494;11.768;2022-08-06T16:07:03;21.10;40.96
69543;SHT31;56762;49.494;11.768;2022-08-06T16:09:35;21.08;38.88
69543;SHT31;56762;49.494;11.768;2022-08-06T16:12:24;21.17;39.68
69543;SHT31;56762;49.494;11.768;2022-08-06T16:14:52;21.29;37.88
69543;SHT31;56762;49.494;11.768;2022-08-06T16:17:25;21.29;40.22
69543;SHT31;56762;49.494;11.768;2022-08-06T16:20:17;21.28;38.67
69543;SHT31;56762;49.494;11.768;2022-08-06T16:22:49;21.25;38.98
69543;SHT31;56762;49.494;11.768;2022-08-06T16:25:18;21.18;38.72
69543;SHT31;56762;49.494;11.768;2022-08-06T16:27:49;21.10;39.34
69543;SHT31;56762;49.494;11.768;2022-08-06T16:30:18;21.01;40.39